createdAt,value
2022-11-13T00:00:02.133Z,7.3
2022-11-13T00:01:01.379Z,7.3
2022-11-13T00:02:01.844Z,7.3
2022-11-13T00:03:02.034Z,7.3
2022-11-13T00:04:01.800Z,7.4
2022-11-13T00:05:01.107Z,7.3
2022-11-13T00:06:01.246Z,7.3
2022-11-13T00:07:01.536Z,7.3
2022-11-13T00:08:00.911Z,7.4
2022-11-13T00:09:01.153Z,7.4
2022-11-13T00:10:01.141Z,7.4
2022-11-13T00:11:01.390Z,7.4
2022-11-13T00:12:01.419Z,7.4
2022-11-13T00:13:01.392Z,7.4
2022-11-13T00:14:01.186Z,7.5
2022-11-13T00:15:01.793Z,7.5
2022-11-13T00:16:01.781Z,7.5
2022-11-13T00:17:02.572Z,7.5
2022-11-13T00:18:01.285Z,7.5
2022-11-13T00:19:01.707Z,7.5
2022-11-13T00:20:01.380Z,7.5
2022-11-13T00:21:01.522Z,7.5
2022-11-13T00:22:01.496Z,7.5
2022-11-13T00:23:01.500Z,7.5
2022-11-13T00:24:01.138Z,7.5
2022-11-13T00:25:01.141Z,7.5
2022-11-13T00:26:01.277Z,7.5
2022-11-13T00:27:01.797Z,7.5
2022-11-13T00:28:01.453Z,7.5
2022-11-13T00:29:01.388Z,7.6
2022-11-13T00:30:03.960Z,7.6
2022-11-13T00:31:04.182Z,7.6
2022-11-13T00:32:01.066Z,7.6
2022-11-13T00:33:01.252Z,7.6
2022-11-13T00:34:19.656Z,7.6
2022-11-13T00:35:01.137Z,7.6
2022-11-13T00:36:01.094Z,7.6
2022-11-13T00:37:01.105Z,7.6
2022-11-13T00:38:01.103Z,7.6
2022-11-13T00:39:01.556Z,7.6
2022-11-13T00:40:02.045Z,7.6
2022-11-13T00:41:02.101Z,7.6
2022-11-13T00:42:02.726Z,7.6
2022-11-13T00:43:01.145Z,7.6
2022-11-13T00:44:01.156Z,7.7
2022-11-13T00:45:01.153Z,7.7
2022-11-13T00:46:01.837Z,7.7
2022-11-13T00:47:02.085Z,7.7
2022-11-13T00:48:02.520Z,7.7
2022-11-13T00:49:01.096Z,7.7
2022-11-13T00:50:01.076Z,7.7
2022-11-13T00:51:01.045Z,7.7
2022-11-13T00:52:01.070Z,7.7
2022-11-13T00:53:01.522Z,7.7
2022-11-13T00:54:01.433Z,7.7
2022-11-13T00:55:02.126Z,7.7
2022-11-13T00:56:02.768Z,7.8
2022-11-13T00:57:01.129Z,7.8
2022-11-13T00:58:01.140Z,7.8
2022-11-13T00:59:01.402Z,7.8
2022-11-13T01:00:01.153Z,7.8
2022-11-13T01:01:01.418Z,7.8
2022-11-13T01:02:02.655Z,7.8
2022-11-13T01:03:01.271Z,7.8
2022-11-13T01:04:01.720Z,7.8
2022-11-13T01:05:01.399Z,7.8
2022-11-13T01:06:03.763Z,7.8
2022-11-13T01:07:01.142Z,7.8
2022-11-13T01:08:01.102Z,7.8
2022-11-13T01:09:00.810Z,7.8
2022-11-13T01:10:00.669Z,7.8
2022-11-13T01:11:05.953Z,7.8
2022-11-13T01:12:01.499Z,7.8
2022-11-13T01:13:01.133Z,7.8
2022-11-13T01:14:01.160Z,7.8
2022-11-13T01:15:01.136Z,7.8
2022-11-13T01:16:09.304Z,7.8
2022-11-13T01:17:01.433Z,7.8
2022-11-13T01:18:01.457Z,7.8
2022-11-13T01:19:02.183Z,7.9
2022-11-13T01:20:01.832Z,7.9
2022-11-13T01:21:11.667Z,7.9
2022-11-13T01:22:02.249Z,7.9
2022-11-13T01:23:01.781Z,7.9
2022-11-13T01:24:01.309Z,7.9
2022-11-13T01:25:01.387Z,7.9
2022-11-13T01:26:14.795Z,7.9
2022-11-13T01:27:01.123Z,7.9
2022-11-13T01:28:02.477Z,7.9
2022-11-13T01:29:01.648Z,8
2022-11-13T01:30:01.441Z,8
2022-11-13T01:31:01.446Z,8
2022-11-13T01:32:01.170Z,8
2022-11-13T01:33:01.163Z,8
2022-11-13T01:34:01.409Z,8
2022-11-13T01:35:01.368Z,8
2022-11-13T01:36:01.870Z,8
2022-11-13T01:37:01.453Z,8
2022-11-13T01:38:02.622Z,8
2022-11-13T01:39:01.484Z,8
2022-11-13T01:40:01.107Z,8
2022-11-13T01:41:01.228Z,8
2022-11-13T01:42:01.139Z,8
2022-11-13T01:43:01.482Z,8
2022-11-13T01:44:01.520Z,8
2022-11-13T01:45:01.638Z,8
2022-11-13T01:46:02.269Z,8.1
2022-11-13T01:47:01.150Z,8.1
2022-11-13T01:48:01.138Z,8.1
2022-11-13T01:49:01.150Z,8.1
2022-11-13T01:50:01.165Z,8.1
2022-11-13T01:51:01.062Z,8.1
2022-11-13T01:52:01.508Z,8.1
2022-11-13T01:53:01.116Z,8.1
2022-11-13T01:54:01.160Z,8.1
2022-11-13T01:55:04.131Z,8.1
2022-11-13T01:56:01.107Z,8.1
2022-11-13T01:57:01.379Z,8.1
2022-11-13T01:58:01.364Z,8.1
2022-11-13T01:59:02.262Z,8.1
2022-11-13T02:00:01.393Z,8.1
2022-11-13T02:01:01.331Z,8.2
2022-11-13T02:02:02.644Z,8.1
2022-11-13T02:03:01.138Z,8.1
2022-11-13T02:04:01.150Z,8.2
2022-11-13T02:05:01.142Z,8.2
2022-11-13T02:06:01.214Z,8.2
2022-11-13T02:07:04.128Z,8.2
2022-11-13T02:08:01.189Z,8.2
2022-11-13T02:09:01.086Z,8.2
2022-11-13T02:10:01.087Z,8.2
2022-11-13T02:11:01.089Z,8.2
2022-11-13T02:12:01.116Z,8.2
2022-11-13T02:13:01.116Z,8.2
2022-11-13T02:14:01.804Z,8.2
2022-11-13T02:15:01.124Z,8.2
2022-11-13T02:16:01.123Z,8.3
2022-11-13T02:17:01.186Z,8.2
2022-11-13T02:18:01.152Z,8.2
2022-11-13T02:19:01.155Z,8.2
2022-11-13T02:20:01.200Z,8.3
2022-11-13T02:21:01.158Z,8.3
2022-11-13T02:22:01.580Z,8.3
2022-11-13T02:23:01.057Z,8.3
2022-11-13T02:24:01.050Z,8.3
2022-11-13T02:25:01.063Z,8.3
2022-11-13T02:26:01.456Z,8.3
2022-11-13T02:27:01.064Z,8.3
2022-11-13T02:28:01.203Z,8.3
2022-11-13T02:29:01.113Z,8.3
2022-11-13T02:30:01.447Z,8.3
2022-11-13T02:31:01.454Z,8.3
2022-11-13T02:32:01.120Z,8.3
2022-11-13T02:33:01.124Z,8.3
2022-11-13T02:34:01.153Z,8.3
2022-11-13T02:35:01.135Z,8.3
2022-11-13T02:36:01.145Z,8.3
2022-11-13T02:37:01.171Z,8.3
2022-11-13T02:38:01.187Z,8.4
2022-11-13T02:39:01.452Z,8.3
2022-11-13T02:40:01.058Z,8.4
2022-11-13T02:41:01.075Z,8.4
2022-11-13T02:42:03.708Z,8.4
2022-11-13T02:43:01.177Z,8.4
2022-11-13T02:44:01.099Z,8.4
2022-11-13T02:45:01.048Z,8.4
2022-11-13T02:46:01.052Z,8.4
2022-11-13T02:47:05.912Z,8.4
2022-11-13T02:48:01.816Z,8.4
2022-11-13T02:49:01.250Z,8.4
2022-11-13T02:50:01.131Z,8.4
2022-11-13T02:51:01.168Z,8.4
2022-11-13T02:52:09.419Z,8.4
2022-11-13T02:53:01.987Z,8.4
2022-11-13T02:54:01.226Z,8.4
2022-11-13T02:55:01.117Z,8.4
2022-11-13T02:56:01.130Z,8.4
2022-11-13T02:57:11.650Z,8.4
2022-11-13T02:58:02.280Z,8.4
2022-11-13T02:59:02.168Z,8.4
2022-11-13T03:00:02.146Z,8.4
2022-11-13T03:01:01.096Z,8.4
2022-11-13T03:02:14.146Z,8.4
2022-11-13T03:03:01.172Z,8.5
2022-11-13T03:04:07.966Z,8.5
2022-11-13T03:05:16.815Z,8.4
2022-11-13T03:06:01.340Z,8.4
2022-11-13T03:07:16.888Z,8.5
2022-11-13T03:08:02.040Z,8.5
2022-11-13T03:09:01.162Z,8.5
2022-11-13T03:10:01.170Z,8.4
2022-11-13T03:11:01.052Z,8.4
2022-11-13T03:12:01.066Z,8.5
2022-11-13T03:13:01.072Z,8.4
2022-11-13T03:14:01.219Z,8.4
2022-11-13T03:15:01.518Z,8.4
2022-11-13T03:16:01.212Z,8.5
2022-11-13T03:17:01.106Z,8.5
2022-11-13T03:18:01.111Z,8.5
2022-11-13T03:19:00.764Z,8.4
2022-11-13T03:20:00.518Z,8.5
2022-11-13T03:21:00.143Z,8.5
2022-11-13T03:21:59.792Z,8.5
2022-11-13T03:23:01.446Z,8.5
2022-11-13T03:24:02.066Z,8.4
2022-11-13T03:25:02.149Z,8.5
2022-11-13T03:26:01.159Z,8.4
2022-11-13T03:27:01.167Z,8.5
2022-11-13T03:28:01.887Z,8.5
2022-11-13T03:29:01.087Z,8.5
2022-11-13T03:30:01.112Z,8.5
2022-11-13T03:31:02.082Z,8.5
2022-11-13T03:32:03.086Z,8.5
2022-11-13T03:33:01.487Z,8.5
2022-11-13T03:34:01.231Z,8.5
2022-11-13T03:35:01.112Z,8.5
2022-11-13T03:36:01.314Z,8.5
2022-11-13T03:37:01.125Z,8.5
2022-11-13T03:38:01.132Z,8.5
2022-11-13T03:39:03.892Z,8.5
2022-11-13T03:40:01.266Z,8.5
2022-11-13T03:41:01.312Z,8.5
2022-11-13T03:42:01.361Z,8.5
2022-11-13T03:43:03.424Z,8.5
2022-11-13T03:44:02.100Z,8.5
2022-11-13T03:45:01.091Z,8.5
2022-11-13T03:46:01.071Z,8.5
2022-11-13T03:47:01.107Z,8.5
2022-11-13T03:48:01.096Z,8.5
2022-11-13T03:49:01.211Z,8.5
2022-11-13T03:50:01.387Z,8.5
2022-11-13T03:51:01.404Z,8.5
2022-11-13T03:52:01.411Z,8.5
2022-11-13T03:53:01.122Z,8.5
2022-11-13T03:54:01.133Z,8.5
2022-11-13T03:55:01.206Z,8.5
2022-11-13T03:56:01.151Z,8.5
2022-11-13T03:57:01.173Z,8.5
2022-11-13T03:58:01.170Z,8.5
2022-11-13T03:59:01.160Z,8.5
2022-11-13T04:00:01.136Z,8.5
2022-11-13T04:01:01.168Z,8.5
2022-11-13T04:02:01.129Z,8.5
2022-11-13T04:03:01.472Z,8.5
2022-11-13T04:04:01.097Z,8.5
2022-11-13T04:05:01.054Z,8.5
2022-11-13T04:06:01.097Z,8.5
2022-11-13T04:07:01.857Z,8.5
2022-11-13T04:08:01.138Z,8.4
2022-11-13T04:09:01.215Z,8.4
2022-11-13T04:10:01.937Z,8.4
2022-11-13T04:11:01.878Z,8.5
2022-11-13T04:12:01.518Z,8.5
2022-11-13T04:13:01.345Z,8.5
2022-11-13T04:14:01.171Z,8.4
2022-11-13T04:15:01.160Z,8.4
2022-11-13T04:16:01.083Z,8.4
2022-11-13T04:17:01.430Z,8.4
2022-11-13T04:18:02.621Z,8.4
2022-11-13T04:19:01.151Z,8.4
2022-11-13T04:20:01.136Z,8.4
2022-11-13T04:21:01.055Z,8.4
2022-11-13T04:22:01.105Z,8.4
2022-11-13T04:23:01.192Z,8.4
2022-11-13T04:24:01.510Z,8.4
2022-11-13T04:25:01.798Z,8.4
2022-11-13T04:26:01.124Z,8.4
2022-11-13T04:27:01.154Z,8.4
2022-11-13T04:28:03.779Z,8.4
2022-11-13T04:29:01.136Z,8.5
2022-11-13T04:30:01.302Z,8.5
2022-11-13T04:31:01.411Z,8.4
2022-11-13T04:32:01.307Z,8.4
2022-11-13T04:33:02.064Z,8.5
2022-11-13T04:34:01.087Z,8.5
2022-11-13T04:35:01.087Z,8.4
2022-11-13T04:36:01.087Z,8.4
2022-11-13T04:37:01.100Z,8.4
2022-11-13T04:38:05.940Z,8.4
2022-11-13T04:39:01.443Z,8.4
2022-11-13T04:40:01.171Z,8.4
2022-11-13T04:41:01.241Z,8.4
2022-11-13T04:42:01.289Z,8.4
2022-11-13T04:43:07.854Z,8.4
2022-11-13T04:44:02.518Z,8.4
2022-11-13T04:45:01.755Z,8.4
2022-11-13T04:46:01.171Z,8.4
2022-11-13T04:47:01.231Z,8.4
2022-11-13T04:48:15.296Z,8.4
2022-11-13T04:49:01.055Z,8.4
2022-11-13T04:50:01.074Z,8.4
2022-11-13T04:51:01.472Z,8.4
2022-11-13T04:52:01.139Z,8.4
2022-11-13T04:53:13.422Z,8.4
2022-11-13T04:54:01.874Z,8.4
2022-11-13T04:55:01.040Z,8.4
2022-11-13T04:56:01.106Z,8.4
2022-11-13T04:57:01.142Z,8.4
2022-11-13T04:58:15.783Z,8.4
2022-11-13T04:59:01.316Z,8.4
2022-11-13T05:00:01.255Z,8.4
2022-11-13T05:01:02.732Z,8.4
2022-11-13T05:02:02.995Z,8.3
2022-11-13T05:03:01.163Z,8.4
2022-11-13T05:04:01.088Z,8.3
2022-11-13T05:05:04.969Z,8.4
2022-11-13T05:06:01.903Z,8.3
2022-11-13T05:07:01.154Z,8.3
2022-11-13T05:08:01.116Z,8.3
2022-11-13T05:09:01.197Z,8.3
2022-11-13T05:10:01.800Z,8.3
2022-11-13T05:11:01.095Z,8.3
2022-11-13T05:12:01.112Z,8.3
2022-11-13T05:13:01.117Z,8.3
2022-11-13T05:14:03.605Z,8.3
2022-11-13T05:15:01.142Z,8.3
2022-11-13T05:16:01.249Z,8.3
2022-11-13T05:17:01.058Z,8.3
2022-11-13T05:18:01.464Z,8.3
2022-11-13T05:19:01.156Z,8.3
2022-11-13T05:20:02.416Z,8.3
2022-11-13T05:21:01.796Z,8.3
2022-11-13T05:22:01.896Z,8.3
2022-11-13T05:23:01.798Z,8.3
2022-11-13T05:24:01.091Z,8.3
2022-11-13T05:25:01.141Z,8.3
2022-11-13T05:26:01.913Z,8.3
2022-11-13T05:27:01.208Z,8.3
2022-11-13T05:28:00.897Z,8.3
2022-11-13T05:29:00.602Z,8.3
2022-11-13T05:30:00.310Z,8.3
2022-11-13T05:31:00.123Z,8.3
2022-11-13T05:31:59.787Z,8.3
2022-11-13T05:33:01.429Z,8.3
2022-11-13T05:34:05.775Z,8.3
2022-11-13T05:35:02.070Z,8.3
2022-11-13T05:36:01.173Z,8.3
2022-11-13T05:37:01.782Z,8.3
2022-11-13T05:38:00.643Z,8.3
2022-11-13T05:39:00.203Z,8.3
2022-11-13T05:39:59.840Z,8.3
2022-11-13T05:41:01.923Z,8.3
2022-11-13T05:42:01.297Z,8.3
2022-11-13T05:43:01.108Z,8.3
2022-11-13T05:44:01.324Z,8.3
2022-11-13T05:45:04.960Z,8.3
2022-11-13T05:46:02.180Z,8.3
2022-11-13T05:47:01.121Z,8.3
2022-11-13T05:48:01.194Z,8.3
2022-11-13T05:49:01.134Z,8.3
2022-11-13T05:50:00.870Z,8.3
2022-11-13T05:51:01.148Z,8.3
2022-11-13T05:52:01.175Z,8.3
2022-11-13T05:53:01.079Z,8.3
2022-11-13T05:54:02.192Z,8.3
2022-11-13T05:55:02.073Z,8.3
2022-11-13T05:56:01.897Z,8.3
2022-11-13T05:57:02.524Z,8.3
2022-11-13T05:58:01.197Z,8.3
2022-11-13T05:59:01.907Z,8.2
2022-11-13T06:00:01.943Z,8.3
2022-11-13T06:01:01.097Z,8.3
2022-11-13T06:02:01.209Z,8.3
2022-11-13T06:03:01.884Z,8.3
2022-11-13T06:04:01.864Z,8.3
2022-11-13T06:05:01.070Z,8.3
2022-11-13T06:06:01.194Z,8.2
2022-11-13T06:07:01.284Z,8.2
2022-11-13T06:08:01.893Z,8.2
2022-11-13T06:09:02.696Z,8.3
2022-11-13T06:10:01.093Z,8.3
2022-11-13T06:11:01.945Z,8.2
2022-11-13T06:12:03.108Z,8.2
2022-11-13T06:13:01.177Z,8.2
2022-11-13T06:14:01.352Z,8.2
2022-11-13T06:15:01.561Z,8.2
2022-11-13T06:16:02.379Z,8.2
2022-11-13T06:17:01.215Z,8.2
2022-11-13T06:18:02.990Z,8.2
2022-11-13T06:19:04.156Z,8.2
2022-11-13T06:20:01.080Z,8.2
2022-11-13T06:21:00.837Z,8.2
2022-11-13T06:22:01.325Z,8.2
2022-11-13T06:23:08.206Z,8.2
2022-11-13T06:24:07.835Z,8.2
2022-11-13T06:25:01.162Z,8.2
2022-11-13T06:26:01.158Z,8.1
2022-11-13T06:27:01.400Z,8.2
2022-11-13T06:28:01.071Z,8.2
2022-11-13T06:29:11.102Z,8.2
2022-11-13T06:30:01.478Z,8.1
2022-11-13T06:31:01.093Z,8.1
2022-11-13T06:32:01.098Z,8.2
2022-11-13T06:33:01.050Z,8.1
2022-11-13T06:34:14.380Z,8.1
2022-11-13T06:35:01.119Z,8.1
2022-11-13T06:36:01.147Z,8.1
2022-11-13T06:37:01.957Z,8.1
2022-11-13T06:38:02.235Z,8.1
2022-11-13T06:39:01.206Z,8.1
2022-11-13T06:40:01.968Z,8.1
2022-11-13T06:41:01.493Z,8.1
2022-11-13T06:42:01.074Z,8.1
2022-11-13T06:43:01.115Z,8.1
2022-11-13T06:44:03.385Z,8.1
2022-11-13T06:45:00.903Z,8.1
2022-11-13T06:46:00.575Z,8.1
2022-11-13T06:47:00.275Z,8.1
2022-11-13T06:47:59.968Z,8.1
2022-11-13T06:48:59.670Z,8.1
2022-11-13T06:50:02.257Z,8.1
2022-11-13T06:51:01.322Z,8.2
2022-11-13T06:52:01.176Z,8.1
2022-11-13T06:53:01.149Z,8.1
2022-11-13T06:54:01.148Z,8.1
2022-11-13T06:55:01.360Z,8.1
2022-11-13T06:56:01.362Z,8.1
2022-11-13T06:57:01.458Z,8.2
2022-11-13T06:58:01.086Z,8.2
2022-11-13T06:59:01.448Z,8.2
2022-11-13T07:00:01.083Z,8.2
2022-11-13T07:01:00.701Z,8.2
2022-11-13T07:02:00.361Z,8.2
2022-11-13T07:02:59.968Z,8.2
2022-11-13T07:03:59.851Z,8.2
2022-11-13T07:05:02.113Z,8.2
2022-11-13T07:06:01.225Z,8.2
2022-11-13T07:07:02.254Z,8.2
2022-11-13T07:08:01.126Z,8.2
2022-11-13T07:09:01.138Z,8.2
2022-11-13T07:10:01.133Z,8.2
2022-11-13T07:11:01.042Z,8.2
2022-11-13T07:12:01.333Z,8.2
2022-11-13T07:13:01.072Z,8.2
2022-11-13T07:14:01.235Z,8.2
2022-11-13T07:15:01.406Z,8.2
2022-11-13T07:16:09.270Z,8.2
2022-11-13T07:17:10.023Z,8.2
2022-11-13T07:18:01.106Z,8.2
2022-11-13T07:19:01.129Z,8.2
2022-11-13T07:20:01.159Z,8.2
2022-11-13T07:21:01.214Z,8.2
2022-11-13T07:22:01.166Z,8.1
2022-11-13T07:23:01.436Z,8.2
2022-11-13T07:24:01.515Z,8.2
2022-11-13T07:25:01.126Z,8.2
2022-11-13T07:26:01.134Z,8.2
2022-11-13T07:27:01.143Z,8.2
2022-11-13T07:28:01.156Z,8.2
2022-11-13T07:29:01.056Z,8.2
2022-11-13T07:30:03.975Z,8.1
2022-11-13T07:31:01.449Z,8.2
2022-11-13T07:32:01.455Z,8.2
2022-11-13T07:33:01.163Z,8.2
2022-11-13T07:34:02.226Z,8.2
2022-11-13T07:35:01.043Z,8.1
2022-11-13T07:36:01.100Z,8.2
2022-11-13T07:37:01.103Z,8.2
2022-11-13T07:38:01.116Z,8.2
2022-11-13T07:39:01.511Z,8.2
2022-11-13T07:40:01.305Z,8.2
2022-11-13T07:41:01.025Z,8.3
2022-11-13T07:42:01.128Z,8.3
2022-11-13T07:43:01.170Z,8.3
2022-11-13T07:44:03.385Z,8.3
2022-11-13T07:45:01.184Z,8.3
2022-11-13T07:46:00.860Z,8.3
2022-11-13T07:47:00.563Z,8.3
2022-11-13T07:48:00.365Z,8.3
2022-11-13T07:49:00.292Z,8.3
2022-11-13T07:50:05.605Z,8.3
2022-11-13T07:51:02.047Z,8.3
2022-11-13T07:52:01.110Z,8.3
2022-11-13T07:53:04.284Z,8.3
2022-11-13T07:54:01.814Z,8.3
2022-11-13T07:55:01.016Z,8.4
2022-11-13T07:56:00.744Z,8.4
2022-11-13T07:57:00.314Z,8.4
2022-11-13T07:58:00.220Z,8.5
2022-11-13T07:59:00.228Z,8.4
2022-11-13T08:00:04.937Z,8.4
2022-11-13T08:01:02.103Z,8.5
2022-11-13T08:02:02.728Z,8.5
2022-11-13T08:03:01.736Z,8.4
2022-11-13T08:04:01.746Z,8.5
2022-11-13T08:05:04.942Z,8.4
2022-11-13T08:06:01.240Z,8.5
2022-11-13T08:07:01.583Z,8.5
2022-11-13T08:08:01.514Z,8.5
2022-11-13T08:09:01.228Z,8.5
2022-11-13T08:10:07.997Z,8.5
2022-11-13T08:11:01.142Z,8.5
2022-11-13T08:12:01.144Z,8.5
2022-11-13T08:13:01.155Z,8.5
2022-11-13T08:14:00.635Z,8.5
2022-11-13T08:15:13.391Z,8.5
2022-11-13T08:16:01.921Z,8.5
2022-11-13T08:17:01.485Z,8.6
2022-11-13T08:18:01.101Z,8.6
2022-11-13T08:19:01.061Z,8.5
2022-11-13T08:20:11.307Z,8.5
2022-11-13T08:21:01.221Z,8.5
2022-11-13T08:22:01.055Z,8.5
2022-11-13T08:23:01.046Z,8.5
2022-11-13T08:24:01.044Z,8.5
2022-11-13T08:25:13.968Z,8.5
2022-11-13T08:26:01.938Z,8.5
2022-11-13T08:27:02.025Z,8.5
2022-11-13T08:28:01.055Z,8.5
2022-11-13T08:29:01.077Z,8.5
2022-11-13T08:30:16.983Z,8.5
2022-11-13T08:31:02.248Z,8.5
2022-11-13T08:32:01.877Z,8.5
2022-11-13T08:33:01.511Z,8.5
2022-11-13T08:34:01.058Z,8.5
2022-11-13T08:35:01.183Z,8.5
2022-11-13T08:36:01.075Z,8.5
2022-11-13T08:37:01.108Z,8.5
2022-11-13T08:38:01.479Z,8.5
2022-11-13T08:39:01.101Z,8.6
2022-11-13T08:40:01.227Z,8.6
2022-11-13T08:41:05.762Z,8.6
2022-11-13T08:42:01.128Z,8.6
2022-11-13T08:43:01.399Z,8.6
2022-11-13T08:44:01.530Z,8.6
2022-11-13T08:45:02.158Z,8.6
2022-11-13T08:46:01.154Z,8.7
2022-11-13T08:47:01.328Z,8.7
2022-11-13T08:48:01.532Z,8.8
2022-11-13T08:49:01.971Z,8.8
2022-11-13T08:50:01.884Z,8.8
2022-11-13T08:51:01.446Z,8.8
2022-11-13T08:52:01.089Z,8.8
2022-11-13T08:53:01.133Z,8.9
2022-11-13T08:54:01.088Z,9
2022-11-13T08:55:01.765Z,9
2022-11-13T08:56:01.116Z,9
2022-11-13T08:57:05.764Z,9.1
2022-11-13T08:58:01.522Z,9.1
2022-11-13T08:59:01.761Z,9.1
2022-11-13T09:00:02.144Z,9.1
2022-11-13T09:01:01.656Z,9.1
2022-11-13T09:02:01.875Z,9.1
2022-11-13T09:03:01.198Z,9.1
2022-11-13T09:04:01.186Z,9.1
2022-11-13T09:05:02.425Z,9.1
2022-11-13T09:06:01.441Z,9.1
2022-11-13T09:07:01.181Z,9.1
2022-11-13T09:08:01.074Z,9.1
2022-11-13T09:09:01.082Z,9.1
2022-11-13T09:10:01.494Z,9.1
2022-11-13T09:11:01.098Z,9.2
2022-11-13T09:12:01.115Z,9.2
2022-11-13T09:13:01.789Z,9.2
2022-11-13T09:14:01.123Z,9.1
2022-11-13T09:15:01.049Z,9.2
2022-11-13T09:16:01.127Z,9.1
2022-11-13T09:17:00.809Z,9.1
2022-11-13T09:18:00.544Z,9.1
2022-11-13T09:19:00.168Z,9.1
2022-11-13T09:20:04.042Z,9.1
2022-11-13T09:21:01.186Z,9.1
2022-11-13T09:22:01.991Z,9.1
2022-11-13T09:23:04.366Z,9.1
2022-11-13T09:24:01.166Z,9
2022-11-13T09:25:01.061Z,9.1
2022-11-13T09:26:01.302Z,9.1
2022-11-13T09:27:01.442Z,9.2
2022-11-13T09:28:02.832Z,9.2
2022-11-13T09:29:01.985Z,9.3
2022-11-13T09:30:01.061Z,9.3
2022-11-13T09:31:01.047Z,9.3
2022-11-13T09:32:01.056Z,9.3
2022-11-13T09:33:01.090Z,9.3
2022-11-13T09:34:01.489Z,9.3
2022-11-13T09:35:01.721Z,9.4
2022-11-13T09:36:02.795Z,9.4
2022-11-13T09:37:02.178Z,9.5
2022-11-13T09:38:02.526Z,9.5
2022-11-13T09:39:01.156Z,9.5
2022-11-13T09:40:01.219Z,9.5
2022-11-13T09:41:01.091Z,9.6
2022-11-13T09:42:01.100Z,9.6
2022-11-13T09:43:01.171Z,9.6
2022-11-13T09:44:02.161Z,9.6
2022-11-13T09:45:01.163Z,9.6
2022-11-13T09:46:02.759Z,9.7
2022-11-13T09:47:01.562Z,9.7
2022-11-13T09:48:01.147Z,9.8
2022-11-13T09:49:01.807Z,9.8
2022-11-13T09:50:01.126Z,9.8
2022-11-13T09:51:06.002Z,9.8
2022-11-13T09:52:06.165Z,9.8
2022-11-13T09:53:01.193Z,9.8
2022-11-13T09:54:01.115Z,9.9
2022-11-13T09:55:01.782Z,9.9
2022-11-13T09:56:10.308Z,9.8
2022-11-13T09:57:01.407Z,9.9
2022-11-13T09:58:01.426Z,9.8
2022-11-13T09:59:02.425Z,9.9
2022-11-13T10:00:01.157Z,9.8
2022-11-13T10:01:14.225Z,9.8
2022-11-13T10:02:01.152Z,9.9
2022-11-13T10:03:04.525Z,9.9
2022-11-13T10:04:03.906Z,9.9
2022-11-13T10:05:01.533Z,10
2022-11-13T10:06:01.126Z,10
2022-11-13T10:07:01.204Z,10
2022-11-13T10:08:01.169Z,10
2022-11-13T10:09:01.230Z,10
2022-11-13T10:10:01.057Z,10
2022-11-13T10:11:01.155Z,10.1
2022-11-13T10:12:03.887Z,10.1
2022-11-13T10:13:02.299Z,10.1
2022-11-13T10:14:01.093Z,10.1
2022-11-13T10:15:03.793Z,10.1
2022-11-13T10:16:01.761Z,10.1
2022-11-13T10:17:01.903Z,10.1
2022-11-13T10:18:01.055Z,10.1
2022-11-13T10:19:01.114Z,10.2
2022-11-13T10:20:01.733Z,10.2
2022-11-13T10:21:06.786Z,10.3
2022-11-13T10:22:19.546Z,10.3
2022-11-13T10:23:02.045Z,10.3
2022-11-13T10:24:01.048Z,10.3
2022-11-13T10:25:01.064Z,10.3
2022-11-13T10:26:00.511Z,10.3
2022-11-13T10:27:00.142Z,10.3
2022-11-13T10:27:59.973Z,10.3
2022-11-13T10:28:59.992Z,10.3
2022-11-13T10:29:59.931Z,10.3
2022-11-13T10:30:59.972Z,10.3
2022-11-13T10:32:00.334Z,10.3
2022-11-13T10:32:59.909Z,10.2
2022-11-13T10:33:59.483Z,10.2
2022-11-13T10:35:01.079Z,10.2
2022-11-13T10:36:01.111Z,10.1
2022-11-13T10:37:02.483Z,10.1
2022-11-13T10:38:07.482Z,10.1
2022-11-13T10:39:01.315Z,10.1
2022-11-13T10:40:02.378Z,10.1
2022-11-13T10:41:01.250Z,10.1
2022-11-13T10:42:01.611Z,10.1
2022-11-13T10:43:01.989Z,10.1
2022-11-13T10:44:02.054Z,10.1
2022-11-13T10:45:00.596Z,10
2022-11-13T10:46:00.237Z,10
2022-11-13T10:46:59.894Z,10
2022-11-13T10:48:04.766Z,9.9
2022-11-13T10:49:01.065Z,9.9
2022-11-13T10:50:01.324Z,9.9
2022-11-13T10:51:01.248Z,9.8
2022-11-13T10:52:01.121Z,9.8
2022-11-13T10:53:01.829Z,9.8
2022-11-13T10:54:01.131Z,9.8
2022-11-13T10:55:02.357Z,9.8
2022-11-13T10:56:01.208Z,9.8
2022-11-13T10:57:01.143Z,9.8
2022-11-13T10:58:01.200Z,9.8
2022-11-13T10:59:01.086Z,9.8
2022-11-13T11:00:01.529Z,9.8
2022-11-13T11:01:04.170Z,9.8
2022-11-13T11:02:01.731Z,9.8
2022-11-13T11:03:01.078Z,9.8
2022-11-13T11:04:01.065Z,9.8
2022-11-13T11:05:01.120Z,9.8
2022-11-13T11:06:01.850Z,9.8
2022-11-13T11:08:01.936Z,9.7
2022-11-13T11:09:01.510Z,9.6
2022-11-13T11:10:01.533Z,9.6
2022-11-13T11:11:01.475Z,9.6
2022-11-13T11:12:01.317Z,9.6
2022-11-13T11:13:02.077Z,9.5
2022-11-13T11:14:01.163Z,9.5
2022-11-13T11:15:01.073Z,9.5
2022-11-13T11:16:01.046Z,9.5
2022-11-13T11:17:01.190Z,9.5
2022-11-13T11:18:01.199Z,9.4
2022-11-13T11:19:02.595Z,9.4
2022-11-13T11:20:01.221Z,9.4
2022-11-13T11:21:01.823Z,9.4
2022-11-13T11:22:01.645Z,9.4
2022-11-13T11:23:01.301Z,9.4
2022-11-13T11:24:01.856Z,9.5
2022-11-13T11:25:01.136Z,9.4
2022-11-13T11:26:01.906Z,9.5
2022-11-13T11:27:01.093Z,9.5
2022-11-13T11:28:01.440Z,9.4
2022-11-13T11:29:01.566Z,9.4
2022-11-13T11:30:00.718Z,9.5
2022-11-13T11:31:00.446Z,9.5
2022-11-13T11:32:03.413Z,9.5
2022-11-13T11:33:01.068Z,9.5
2022-11-13T11:34:01.089Z,9.5
2022-11-13T11:35:01.099Z,9.5
2022-11-13T11:36:01.599Z,9.5
2022-11-13T11:37:06.812Z,9.5
2022-11-13T11:38:01.516Z,9.5
2022-11-13T11:39:01.138Z,9.5
2022-11-13T11:40:01.161Z,9.5
2022-11-13T11:41:01.348Z,9.5
2022-11-13T11:42:09.159Z,9.5
2022-11-13T11:43:01.258Z,9.5
2022-11-13T11:44:01.783Z,9.5
2022-11-13T11:45:01.133Z,9.5
2022-11-13T11:46:01.183Z,9.5
2022-11-13T11:47:11.880Z,9.5
2022-11-13T11:48:01.375Z,9.5
2022-11-13T11:49:01.069Z,9.5
2022-11-13T11:50:01.087Z,9.5
2022-11-13T11:51:02.095Z,9.5
2022-11-13T11:52:14.882Z,9.5
2022-11-13T11:53:01.044Z,9.5
2022-11-13T11:54:01.431Z,9.5
2022-11-13T11:55:01.049Z,9.5
2022-11-13T11:56:01.126Z,9.5
2022-11-13T11:57:01.730Z,9.5
2022-11-13T11:58:01.327Z,9.5
2022-11-13T11:59:01.139Z,9.5
2022-11-13T12:00:01.575Z,9.5
2022-11-13T12:01:01.993Z,9.5
2022-11-13T12:02:01.272Z,9.5
2022-11-13T12:03:01.176Z,9.5
2022-11-13T12:04:01.863Z,9.5
2022-11-13T12:05:01.098Z,9.5
2022-11-13T12:06:01.090Z,9.5
2022-11-13T12:07:01.149Z,9.6
2022-11-13T12:08:01.698Z,9.6
2022-11-13T12:09:01.925Z,9.5
2022-11-13T12:10:01.063Z,9.5
2022-11-13T12:11:01.132Z,9.5
2022-11-13T12:12:01.138Z,9.5
2022-11-13T12:13:00.819Z,9.5
2022-11-13T12:14:01.239Z,9.5
2022-11-13T12:15:01.198Z,9.5
2022-11-13T12:16:01.193Z,9.5
2022-11-13T12:17:01.862Z,9.6
2022-11-13T12:18:01.861Z,9.6
2022-11-13T12:19:02.481Z,9.6
2022-11-13T12:20:01.463Z,9.6
2022-11-13T12:21:01.094Z,9.6
2022-11-13T12:22:01.134Z,9.6
2022-11-13T12:23:01.253Z,9.6
2022-11-13T12:24:01.923Z,9.6
2022-11-13T12:25:01.071Z,9.6
2022-11-13T12:26:01.127Z,9.6
2022-11-13T12:27:01.204Z,9.6
2022-11-13T12:28:04.214Z,9.6
2022-11-13T12:29:01.969Z,9.6
2022-11-13T12:30:01.746Z,9.6
2022-11-13T12:31:01.162Z,9.6
2022-11-13T12:32:01.141Z,9.6
2022-11-13T12:33:01.945Z,9.6
2022-11-13T12:34:01.870Z,9.6
2022-11-13T12:35:01.564Z,9.6
2022-11-13T12:36:01.201Z,9.6
2022-11-13T12:37:02.153Z,9.6
2022-11-13T12:38:01.088Z,9.6
2022-11-13T12:39:01.193Z,9.6
2022-11-13T12:40:02.417Z,9.6
2022-11-13T12:41:01.869Z,9.6
2022-11-13T12:42:01.321Z,9.6
2022-11-13T12:43:01.488Z,9.6
2022-11-13T12:44:02.250Z,9.6
2022-11-13T12:45:01.266Z,9.6
2022-11-13T12:46:01.143Z,9.6
2022-11-13T12:47:01.126Z,9.6
2022-11-13T12:48:01.161Z,9.6
2022-11-13T12:49:01.403Z,9.6
2022-11-13T12:50:01.191Z,9.6
2022-11-13T12:51:01.373Z,9.6
2022-11-13T12:52:01.075Z,9.7
2022-11-13T12:53:02.112Z,9.7
2022-11-13T12:54:01.569Z,9.7
2022-11-13T12:55:01.229Z,9.7
2022-11-13T12:56:01.285Z,9.7
2022-11-13T12:57:01.114Z,9.8
2022-11-13T12:58:01.118Z,9.8
2022-11-13T12:59:29.240Z,9.8
2022-11-13T13:00:01.146Z,9.8
2022-11-13T13:01:01.267Z,9.8
2022-11-13T13:02:01.224Z,9.8
2022-11-13T13:03:02.049Z,9.8
2022-11-13T13:04:02.214Z,9.8
2022-11-13T13:05:01.068Z,9.8
2022-11-13T13:06:01.072Z,9.8
2022-11-13T13:07:01.199Z,9.8
2022-11-13T13:08:05.420Z,9.8
2022-11-13T13:09:01.954Z,9.8
2022-11-13T13:10:01.866Z,9.8
2022-11-13T13:11:01.229Z,9.8
2022-11-13T13:12:01.156Z,9.8
2022-11-13T13:13:01.464Z,9.8
2022-11-13T13:14:02.330Z,9.8
2022-11-13T13:15:01.146Z,9.8
2022-11-13T13:16:01.121Z,9.8
2022-11-13T13:17:01.164Z,9.8
2022-11-13T13:18:04.234Z,9.8
2022-11-13T13:19:01.862Z,9.8
2022-11-13T13:20:01.141Z,9.8
2022-11-13T13:21:01.291Z,9.8
2022-11-13T13:22:01.936Z,9.8
2022-11-13T13:23:08.905Z,9.8
2022-11-13T13:24:01.171Z,9.7
2022-11-13T13:25:01.163Z,9.7
2022-11-13T13:26:01.076Z,9.7
2022-11-13T13:27:01.081Z,9.7
2022-11-13T13:28:11.248Z,9.7
2022-11-13T13:29:01.470Z,9.7
2022-11-13T13:30:01.204Z,9.7
2022-11-13T13:31:04.058Z,9.7
2022-11-13T13:32:01.147Z,9.7
2022-11-13T13:33:14.182Z,9.7
2022-11-13T13:34:01.123Z,9.7
2022-11-13T13:35:01.128Z,9.7
2022-11-13T13:36:01.270Z,9.7
2022-11-13T13:37:01.152Z,9.7
2022-11-13T13:38:15.980Z,9.7
2022-11-13T13:39:01.530Z,9.7
2022-11-13T13:40:01.049Z,9.7
2022-11-13T13:41:01.179Z,9.7
2022-11-13T13:41:59.618Z,9.7
2022-11-13T13:43:01.259Z,9.7
2022-11-13T13:44:01.890Z,9.7
2022-11-13T13:45:01.891Z,9.7
2022-11-13T13:46:01.865Z,9.7
2022-11-13T13:47:01.115Z,9.7